Time;durP1;ratioP1;P1;durP2;ratioP2;P2;SDS_P1;SDS_P2;PMS_P1;PMS_P2;Temp;Humidity;BMP_temperature;BMP_pressure;BME280_temperature;BME280_humidity;BME280_pressure;Samples;Min_cycle;Max_cycle;Signal;HPM_P1;HPM_P2
2022/09/15 00:02:10;;;;;;;;;;;15.10;82.10;;;;;;6125663;23;20338;-69
2022/09/15 00:04:37;;;;;;;;;;;15.20;81.90;;;;;;6149139;23;19908;-70
2022/09/15 00:07:03;;;;;;;;;;;15.20;81.60;;;;;;6151474;23;19970;-70
2022/09/15 00:09:30;;;;;;;;;;;15.20;81.30;;;;;;6151032;23;19905;-70
2022/09/15 00:11:56;;;;;;;;;;;15.40;81.10;;;;;;6124865;23;19936;-69
2022/09/15 00:14:23;;;;;;;;;;;15.50;81.50;;;;;;6151051;23;19984;-69
2022/09/15 00:16:50;;;;;;;;;;;15.60;81.10;;;;;;6151497;23;19909;-70
2022/09/15 00:19:16;;;;;;;;;;;15.70;81.50;;;;;;6152330;23;19908;-68
2022/09/15 00:21:43;;;;;;;;;;;15.90;80.70;;;;;;6150856;23;19943;-69
2022/09/15 00:24:09;;;;;;;;;;;16.00;81.00;;;;;;6152922;23;19908;-69
2022/09/15 00:26:36;;;;;;;;;;;16.00;81.10;;;;;;6166117;23;19924;-69
2022/09/15 00:29:03;;;;;;;;;;;16.00;80.30;;;;;;6182462;23;20240;-69
2022/09/15 00:31:30;;;;;;;;;;;16.10;80.40;;;;;;6182279;23;19940;-68
2022/09/15 00:33:57;;;;;;;;;;;16.20;80.50;;;;;;6181384;23;19911;-68
2022/09/15 00:36:24;;;;;;;;;;;16.20;80.00;;;;;;6182257;23;20297;-69
2022/09/15 00:38:50;;;;;;;;;;;16.20;79.90;;;;;;6182371;23;19908;-70
2022/09/15 00:41:18;;;;;;;;;;;16.30;80.00;;;;;;6181992;23;19908;-69
2022/09/15 00:43:49;;;;;;;;;;;16.30;80.00;;;;;;6154747;23;20350;-70
2022/09/15 00:46:16;;;;;;;;;;;16.30;78.50;;;;;;6181152;23;19929;-70
2022/09/15 00:49:00;;;;;;;;;;;16.40;78.90;;;;;;6182147;23;20401;-70
2022/09/15 00:51:29;;;;;;;;;;;16.40;78.90;;;;;;6182100;23;20343;-70
2022/09/15 00:53:56;;;;;;;;;;;16.40;78.60;;;;;;6155821;23;19912;-70
2022/09/15 00:56:22;;;;;;;;;;;16.40;77.40;;;;;;6182807;23;19908;-69
2022/09/15 00:58:54;;;;;;;;;;;16.50;76.90;;;;;;6156511;23;19992;-69
2022/09/15 01:01:21;;;;;;;;;;;16.50;77.20;;;;;;6182759;23;19915;-69
2022/09/15 01:03:48;;;;;;;;;;;16.50;76.90;;;;;;6155861;23;19915;-69
2022/09/15 01:06:19;;;;;;;;;;;16.60;77.40;;;;;;6152282;23;19916;-69
2022/09/15 01:09:01;;;;;;;;;;;16.60;77.40;;;;;;6155656;23;19912;-69
2022/09/15 01:11:28;;;;;;;;;;;16.60;77.60;;;;;;6181649;23;19991;-70
2022/09/15 01:13:54;;;;;;;;;;;16.60;78.00;;;;;;6182255;23;19912;-70
2022/09/15 01:16:30;;;;;;;;;;;16.70;77.70;;;;;;6181221;23;20012;-69
2022/09/15 01:18:59;;;;;;;;;;;16.70;77.70;;;;;;6154621;23;19912;-69
2022/09/15 01:21:44;;;;;;;;;;;16.70;77.80;;;;;;6155733;23;19924;-69
2022/09/15 13:42:43;;;;;;;;;;;14.10;97.40;;;;;;6177222;23;19967;-67
2022/09/15 13:45:28;;;;;;;;;;;14.10;97.50;;;;;;6185153;23;20303;-67
2022/09/15 13:47:58;;;;;;;;;;;14.10;97.50;;;;;;6185000;23;19928;-67
2022/09/15 13:50:39;;;;;;;;;;;14.10;97.60;;;;;;6185408;23;20271;-67
2022/09/15 13:53:24;;;;;;;;;;;14.10;97.50;;;;;;6159091;23;19912;-67
2022/09/15 13:55:52;;;;;;;;;;;14.10;97.50;;;;;;6185545;23;19928;-67
2022/09/15 13:58:19;;;;;;;;;;;14.10;97.50;;;;;;6185034;23;20324;-67
2022/09/15 14:00:54;;;;;;;;;;;14.00;97.50;;;;;;6185115;23;19991;-67
2022/09/15 14:03:24;;;;;;;;;;;14.00;97.50;;;;;;6184876;23;19946;-67
2022/09/15 14:05:51;;;;;;;;;;;14.00;97.50;;;;;;6159372;23;19904;-67
2022/09/15 14:08:20;;;;;;;;;;;14.00;97.50;;;;;;6159038;23;19912;-67
2022/09/15 14:10:51;;;;;;;;;;;14.00;97.50;;;;;;6185083;23;19908;-67
2022/09/15 14:13:19;;;;;;;;;;;14.00;97.50;;;;;;6185334;23;19910;-67
2022/09/15 14:18:23;;;;;;;;;;;14.00;97.50;;;;;;6185530;23;19976;-67
2022/09/15 14:21:03;;;;;;;;;;;14.00;97.50;;;;;;6185505;23;19960;-67
2022/09/15 14:23:30;;;;;;;;;;;14.00;97.50;;;;;;6184185;23;19959;-67
2022/09/15 14:25:58;;;;;;;;;;;14.00;97.50;;;;;;6158777;23;19950;-67
2022/09/15 14:28:31;;;;;;;;;;;14.00;97.60;;;;;;6185090;23;19924;-67
2022/09/15 14:30:58;;;;;;;;;;;14.00;97.60;;;;;;6159038;23;19947;-67
2022/09/15 14:33:25;;;;;;;;;;;13.90;97.50;;;;;;6184770;23;19915;-67
2022/09/15 14:35:51;;;;;;;;;;;13.90;97.50;;;;;;6185067;23;19908;-67
2022/09/15 14:38:21;;;;;;;;;;;14.00;97.50;;;;;;6158437;23;19975;-67
2022/09/15 14:40:51;;;;;;;;;;;13.90;97.50;;;;;;6158390;23;19904;-67
2022/09/15 14:43:34;;;;;;;;;;;13.90;97.40;;;;;;6184017;23;19917;-67
2022/09/15 14:46:17;;;;;;;;;;;13.80;97.40;;;;;;6184512;23;19904;-67
2022/09/15 14:48:43;;;;;;;;;;;13.90;97.50;;;;;;6158287;23;19919;-67
2022/09/15 14:51:13;;;;;;;;;;;13.90;97.50;;;;;;6184700;23;19931;-67
2022/09/15 14:53:39;;;;;;;;;;;13.90;97.40;;;;;;6158357;23;20240;-67
2022/09/15 14:56:10;;;;;;;;;;;13.90;97.40;;;;;;6158497;23;19904;-67
2022/09/15 14:58:37;;;;;;;;;;;13.80;97.40;;;;;;6158372;23;20247;-67
2022/09/15 15:01:06;;;;;;;;;;;13.80;97.50;;;;;;6184104;23;19904;-68
2022/09/15 15:03:33;;;;;;;;;;;13.80;97.40;;;;;;6158528;23;19908;-66
2022/09/15 15:06:01;;;;;;;;;;;13.80;97.40;;;;;;6184359;23;20280;-66
2022/09/15 15:08:36;;;;;;;;;;;13.80;97.40;;;;;;6158353;23;19925;-66
2022/09/15 15:11:03;;;;;;;;;;;13.80;97.40;;;;;;6158597;23;20212;-66
2022/09/15 15:13:30;;;;;;;;;;;13.70;97.40;;;;;;6183985;23;19931;-66
2022/09/15 15:15:57;;;;;;;;;;;13.70;97.40;;;;;;6158300;23;19905;-66
2022/09/15 15:18:28;;;;;;;;;;;13.70;97.40;;;;;;6184319;23;19904;-66
2022/09/15 15:20:54;;;;;;;;;;;13.70;97.40;;;;;;6158115;23;19908;-66
2022/09/15 15:23:24;;;;;;;;;;;13.70;97.40;;;;;;6184456;23;19905;-66
2022/09/15 15:26:05;;;;;;;;;;;13.70;97.40;;;;;;6158554;23;20232;-66
2022/09/15 15:28:32;;;;;;;;;;;13.70;97.40;;;;;;6183423;23;19924;-66
2022/09/15 15:31:05;;;;;;;;;;;13.70;97.40;;;;;;6183705;23;19912;-66
2022/09/15 15:33:31;;;;;;;;;;;13.70;97.30;;;;;;6184095;23;19904;-66
2022/09/15 15:36:02;;;;;;;;;;;13.70;97.30;;;;;;6157471;23;19908;-66
2022/09/15 15:38:31;;;;;;;;;;;13.70;97.30;;;;;;6157964;23;19908;-66
2022/09/15 15:41:01;;;;;;;;;;;13.70;97.30;;;;;;6157884;23;19904;-66
2022/09/15 15:43:28;;;;;;;;;;;13.70;97.30;;;;;;6157394;23;20320;-66
2022/09/15 15:45:59;;;;;;;;;;;13.70;97.30;;;;;;6183903;23;19931;-66
2022/09/15 15:48:34;;;;;;;;;;;13.70;97.20;;;;;;6182873;23;19971;-66
2022/09/15 15:51:01;;;;;;;;;;;13.70;97.20;;;;;;6158021;23;19908;-68
2022/09/15 15:53:28;;;;;;;;;;;13.70;97.20;;;;;;6157851;23;19904;-68
2022/09/15 15:55:55;;;;;;;;;;;13.60;97.20;;;;;;6184423;23;19912;-66
2022/09/15 15:58:21;;;;;;;;;;;13.60;97.10;;;;;;6184494;23;19904;-66
2022/09/15 16:00:49;;;;;;;;;;;13.60;97.10;;;;;;6158057;23;20205;-66
2022/09/15 16:03:16;;;;;;;;;;;13.50;97.10;;;;;;6184602;23;19908;-66
2022/09/15 16:05:43;;;;;;;;;;;13.50;97.10;;;;;;6157944;23;19912;-66
2022/09/15 16:08:11;;;;;;;;;;;13.50;97.10;;;;;;6184387;23;20020;-66
2022/09/15 16:10:39;;;;;;;;;;;13.60;97.10;;;;;;6184012;23;19934;-66
2022/09/15 16:13:07;;;;;;;;;;;13.50;97.10;;;;;;6184007;23;20323;-66
2022/09/15 16:15:33;;;;;;;;;;;13.50;97.10;;;;;;6157799;23;19908;-66
2022/09/15 16:18:00;;;;;;;;;;;13.50;97.10;;;;;;6184251;23;19908;-66
2022/09/15 16:20:27;;;;;;;;;;;13.50;97.00;;;;;;6184149;23;19904;-66
2022/09/15 16:22:54;;;;;;;;;;;13.50;97.00;;;;;;6183724;23;19911;-66
2022/09/15 16:25:25;;;;;;;;;;;13.50;97.00;;;;;;6183880;23;19908;-66
2022/09/15 16:27:52;;;;;;;;;;;13.50;97.00;;;;;;6184114;23;20343;-66
2022/09/15 16:30:18;;;;;;;;;;;13.50;96.90;;;;;;6183934;23;20251;-66
2022/09/15 16:32:45;;;;;;;;;;;13.50;96.90;;;;;;6184204;23;19913;-66
2022/09/15 16:35:23;;;;;;;;;;;13.40;96.90;;;;;;6183531;23;19908;-66
2022/09/15 16:37:49;;;;;;;;;;;13.50;96.90;;;;;;6157958;23;19911;-66
2022/09/15 16:40:16;;;;;;;;;;;13.40;96.90;;;;;;6183419;23;19905;-66
2022/09/15 16:42:43;;;;;;;;;;;13.40;96.90;;;;;;6183836;23;19988;-65
2022/09/15 16:45:21;;;;;;;;;;;13.40;96.90;;;;;;6184064;23;19917;-66
2022/09/15 16:47:47;;;;;;;;;;;13.50;96.90;;;;;;6158164;23;19919;-66
2022/09/15 16:50:14;;;;;;;;;;;13.40;96.90;;;;;;6183946;23;19904;-66
2022/09/15 16:52:41;;;;;;;;;;;13.40;96.90;;;;;;6184159;23;19904;-66
2022/09/15 16:55:34;;;;;;;;;;;13.40;96.90;;;;;;6183783;23;19932;-66
2022/09/15 16:58:01;;;;;;;;;;;13.40;96.90;;;;;;6177272;23;19967;-66
2022/09/15 17:00:29;;;;;;;;;;;13.40;96.90;;;;;;6185986;23;19979;-68
2022/09/15 17:02:55;;;;;;;;;;;13.40;96.90;;;;;;6186402;23;20320;-68
2022/09/15 17:05:26;;;;;;;;;;;13.40;96.80;;;;;;6159546;23;20280;-66
2022/09/15 17:07:53;;;;;;;;;;;13.40;96.80;;;;;;6185641;23;19919;-66
2022/09/15 17:10:19;;;;;;;;;;;13.40;96.80;;;;;;6185451;23;19911;-66
2022/09/15 17:12:46;;;;;;;;;;;13.40;96.80;;;;;;6186151;23;19904;-66
2022/09/15 17:15:17;;;;;;;;;;;13.40;96.80;;;;;;6185651;23;19963;-66
2022/09/15 17:17:43;;;;;;;;;;;13.40;96.80;;;;;;6185723;23;19905;-66
2022/09/15 17:20:10;;;;;;;;;;;13.40;96.80;;;;;;6185754;23;19908;-66
2022/09/15 17:22:36;;;;;;;;;;;13.30;96.80;;;;;;6185346;23;19904;-66
2022/09/15 17:25:23;;;;;;;;;;;13.30;96.80;;;;;;6185355;23;19966;-65
2022/09/15 17:27:50;;;;;;;;;;;13.30;96.80;;;;;;6159331;23;19912;-66
2022/09/15 17:30:17;;;;;;;;;;;13.30;96.70;;;;;;6183808;23;19912;-66
2022/09/15 17:32:44;;;;;;;;;;;13.30;96.70;;;;;;6184737;23;20251;-66
2022/09/15 17:35:17;;;;;;;;;;;13.30;96.70;;;;;;6185122;23;19904;-66
2022/09/15 17:37:44;;;;;;;;;;;13.30;96.70;;;;;;6185387;23;20085;-66
2022/09/15 17:40:11;;;;;;;;;;;13.30;96.70;;;;;;6185614;23;19904;-66
2022/09/15 17:42:38;;;;;;;;;;;13.30;96.60;;;;;;6184823;23;19912;-66
2022/09/15 17:45:16;;;;;;;;;;;13.30;96.70;;;;;;6185799;23;19999;-66
2022/09/15 17:47:43;;;;;;;;;;;13.30;96.70;;;;;;6185276;23;19920;-66
2022/09/15 17:50:10;;;;;;;;;;;13.30;96.70;;;;;;6185743;23;20323;-66
2022/09/15 17:52:37;;;;;;;;;;;13.30;96.70;;;;;;6185377;23;19904;-67
2022/09/15 17:55:25;;;;;;;;;;;13.30;96.60;;;;;;6185935;23;19908;-68
2022/09/15 17:57:52;;;;;;;;;;;13.30;96.60;;;;;;6161651;23;20009;-68
2022/09/15 18:00:18;;;;;;;;;;;13.30;96.60;;;;;;6185358;23;20316;-68
2022/09/15 18:02:48;;;;;;;;;;;13.30;96.60;;;;;;6185099;23;19947;-68
2022/09/15 18:05:21;;;;;;;;;;;13.20;96.60;;;;;;6185316;23;20327;-68
2022/09/15 18:07:48;;;;;;;;;;;13.20;96.50;;;;;;6185070;23;20338;-68
2022/09/15 18:10:14;;;;;;;;;;;13.20;96.50;;;;;;6184525;23;19904;-68
2022/09/15 18:12:41;;;;;;;;;;;13.30;96.60;;;;;;6185185;23;19911;-68
2022/09/15 18:15:12;;;;;;;;;;;13.30;96.60;;;;;;6157133;23;19904;-66
2022/09/15 18:17:39;;;;;;;;;;;13.30;96.50;;;;;;6158534;23;19911;-65
2022/09/15 18:20:05;;;;;;;;;;;13.20;96.50;;;;;;6184930;23;20217;-66
2022/09/15 18:22:32;;;;;;;;;;;13.30;96.50;;;;;;6185773;23;19992;-66
2022/09/15 18:24:58;;;;;;;;;;;13.20;96.50;;;;;;6185064;23;20328;-66
2022/09/15 18:27:25;;;;;;;;;;;13.20;96.40;;;;;;6184790;23;20320;-66
2022/09/15 18:29:51;;;;;;;;;;;13.20;96.30;;;;;;6185613;23;19912;-66
2022/09/15 18:32:18;;;;;;;;;;;13.20;96.30;;;;;;6185014;23;19932;-66
2022/09/15 18:34:45;;;;;;;;;;;13.20;96.30;;;;;;6184706;23;20228;-66
2022/09/15 18:37:11;;;;;;;;;;;13.20;96.30;;;;;;6184645;23;20248;-66
2022/09/15 18:39:38;;;;;;;;;;;13.20;96.30;;;;;;6183562;23;20258;-66
2022/09/15 18:42:04;;;;;;;;;;;13.20;96.30;;;;;;6184523;23;19915;-66
2022/09/15 18:44:31;;;;;;;;;;;13.20;96.20;;;;;;6184498;23;19916;-66
2022/09/15 18:46:58;;;;;;;;;;;13.20;96.20;;;;;;6157922;23;19908;-66
2022/09/15 18:49:25;;;;;;;;;;;13.20;96.10;;;;;;6185169;23;19916;-66
2022/09/15 18:51:51;;;;;;;;;;;13.20;96.10;;;;;;6184370;23;20255;-66
2022/09/15 18:54:18;;;;;;;;;;;13.20;96.10;;;;;;6158289;23;19911;-66
2022/09/15 18:56:45;;;;;;;;;;;13.20;96.10;;;;;;6184175;23;19908;-66
2022/09/15 18:59:11;;;;;;;;;;;13.20;96.00;;;;;;6184225;23;19905;-66
2022/09/15 19:01:38;;;;;;;;;;;13.20;96.00;;;;;;6184363;23;19911;-66
2022/09/15 19:04:04;;;;;;;;;;;13.20;96.00;;;;;;6184316;23;19905;-66
2022/09/15 19:06:31;;;;;;;;;;;13.20;95.90;;;;;;6183602;23;19908;-66
2022/09/15 19:08:58;;;;;;;;;;;13.20;95.90;;;;;;6183253;23;19908;-65
2022/09/15 19:11:25;;;;;;;;;;;13.10;95.90;;;;;;6184330;23;19986;-65
2022/09/15 19:13:52;;;;;;;;;;;13.20;95.80;;;;;;6184157;23;19911;-68
2022/09/15 19:16:18;;;;;;;;;;;13.10;95.80;;;;;;6184322;23;19979;-65
2022/09/15 19:18:48;;;;;;;;;;;13.00;95.70;;;;;;6184624;23;20402;-68
2022/09/15 19:21:15;;;;;;;;;;;13.00;95.50;;;;;;6184367;23;19908;-68
2022/09/15 19:23:42;;;;;;;;;;;12.90;95.60;;;;;;6184698;23;19908;-68
2022/09/15 19:26:12;;;;;;;;;;;12.90;95.60;;;;;;6184616;23;19904;-67
2022/09/15 19:28:39;;;;;;;;;;;12.90;95.70;;;;;;6184559;23;19967;-68
2022/09/15 19:31:05;;;;;;;;;;;12.90;95.60;;;;;;6184892;23;19905;-68
2022/09/15 19:33:32;;;;;;;;;;;12.90;95.60;;;;;;6184327;23;20362;-68
2022/09/15 19:36:02;;;;;;;;;;;12.90;95.50;;;;;;6184487;23;19911;-68
2022/09/15 19:38:28;;;;;;;;;;;12.90;95.50;;;;;;6184395;23;19904;-68
2022/09/15 19:41:04;;;;;;;;;;;12.90;95.50;;;;;;6184858;23;19916;-67
2022/09/15 19:43:31;;;;;;;;;;;12.90;95.60;;;;;;6184305;23;19967;-68
2022/09/15 19:45:58;;;;;;;;;;;12.80;95.30;;;;;;6184629;23;19959;-68
2022/09/15 19:48:24;;;;;;;;;;;12.80;95.40;;;;;;6184317;23;19979;-68
2022/09/15 19:50:51;;;;;;;;;;;12.90;95.40;;;;;;6184806;23;19904;-68
2022/09/15 19:53:18;;;;;;;;;;;12.80;95.30;;;;;;6184488;23;19927;-68
2022/09/15 19:55:50;;;;;;;;;;;12.80;95.40;;;;;;6184299;23;19915;-68
2022/09/15 19:58:18;;;;;;;;;;;12.80;95.40;;;;;;6184422;23;19910;-68
2022/09/15 20:00:50;;;;;;;;;;;12.90;95.40;;;;;;6184637;23;20003;-68
2022/09/15 20:03:17;;;;;;;;;;;12.90;95.40;;;;;;6184637;23;19912;-68
2022/09/15 20:05:53;;;;;;;;;;;12.80;95.40;;;;;;6184647;23;19911;-69
2022/09/15 20:08:19;;;;;;;;;;;12.80;95.20;;;;;;6157987;23;19917;-68
2022/09/15 20:10:46;;;;;;;;;;;12.80;95.20;;;;;;6184576;23;19908;-68
2022/09/15 20:13:13;;;;;;;;;;;12.80;95.30;;;;;;6157873;23;20239;-68
2022/09/15 20:15:39;;;;;;;;;;;12.90;95.20;;;;;;6184382;23;19976;-67
2022/09/15 20:18:06;;;;;;;;;;;12.90;95.20;;;;;;6183961;23;19911;-67
2022/09/15 20:20:33;;;;;;;;;;;12.90;95.20;;;;;;6183991;23;19912;-68
2022/09/15 20:23:00;;;;;;;;;;;12.90;95.30;;;;;;6184049;23;19911;-68
2022/09/15 20:25:26;;;;;;;;;;;12.90;95.20;;;;;;6184604;23;19909;-68
2022/09/15 20:27:53;;;;;;;;;;;12.90;95.20;;;;;;6184111;23;19919;-68
2022/09/15 20:30:20;;;;;;;;;;;13.00;95.20;;;;;;6184061;23;20320;-68
2022/09/15 20:32:46;;;;;;;;;;;13.00;95.10;;;;;;6157875;23;19905;-68
2022/09/15 20:35:13;;;;;;;;;;;13.00;95.20;;;;;;6159426;23;20308;-68
2022/09/15 20:37:40;;;;;;;;;;;13.10;95.10;;;;;;6186676;23;19936;-68
2022/09/15 20:40:08;;;;;;;;;;;13.10;94.90;;;;;;6186194;23;19908;-68
2022/09/15 20:42:35;;;;;;;;;;;13.20;94.90;;;;;;6185890;23;19995;-68
2022/09/15 20:45:02;;;;;;;;;;;13.20;94.80;;;;;;6186014;23;20038;-68
2022/09/15 20:47:29;;;;;;;;;;;13.20;94.80;;;;;;6185889;23;19919;-68
2022/09/15 20:49:55;;;;;;;;;;;13.30;94.80;;;;;;6186476;23;20362;-68
2022/09/15 20:52:22;;;;;;;;;;;13.30;94.60;;;;;;6186008;23;19905;-68
2022/09/15 20:54:49;;;;;;;;;;;13.40;94.60;;;;;;6185895;23;19911;-68
2022/09/15 20:57:15;;;;;;;;;;;13.50;94.70;;;;;;6185836;23;19904;-68
2022/09/15 20:59:42;;;;;;;;;;;13.50;94.50;;;;;;6186004;23;20320;-68
2022/09/15 21:02:08;;;;;;;;;;;13.50;94.40;;;;;;6159969;23;19927;-68
2022/09/15 21:04:35;;;;;;;;;;;13.50;94.40;;;;;;6185806;23;20104;-68
2022/09/15 21:07:02;;;;;;;;;;;13.60;94.40;;;;;;6185673;23;19925;-68
2022/09/15 21:09:28;;;;;;;;;;;13.60;94.50;;;;;;6185764;23;19911;-68
2022/09/15 21:11:55;;;;;;;;;;;13.70;94.40;;;;;;6185907;23;20213;-68
2022/09/15 21:14:21;;;;;;;;;;;13.70;94.40;;;;;;6185679;23;19951;-68
2022/09/15 21:16:48;;;;;;;;;;;13.70;94.40;;;;;;6185337;23;20235;-68
2022/09/15 21:19:14;;;;;;;;;;;13.80;94.50;;;;;;6186180;23;19915;-68
2022/09/15 21:21:41;;;;;;;;;;;13.90;94.20;;;;;;6185733;23;19904;-68
2022/09/15 21:24:08;;;;;;;;;;;13.90;94.00;;;;;;6185663;23;19946;-68
2022/09/15 21:27:25;;;;;;;;;;;13.90;94.10;;;;;;6158920;23;19905;-68
2022/09/15 21:29:22;;;;;;;;;;;14.00;94.00;;;;;;6185485;23;19915;-68
2022/09/15 21:31:49;;;;;;;;;;;14.10;94.20;;;;;;6185634;23;19915;-68
2022/09/15 21:34:15;;;;;;;;;;;14.10;94.10;;;;;;6185873;23;20312;-68
2022/09/15 21:36:42;;;;;;;;;;;14.10;94.00;;;;;;6185495;23;19908;-68
2022/09/15 21:39:09;;;;;;;;;;;14.20;93.80;;;;;;6185247;23;20320;-68
2022/09/15 21:41:35;;;;;;;;;;;14.20;94.00;;;;;;6185292;23;20001;-68
2022/09/15 21:44:02;;;;;;;;;;;14.30;93.90;;;;;;6185447;23;19996;-67
2022/09/15 21:46:29;;;;;;;;;;;14.30;93.80;;;;;;6184538;23;19908;-67
2022/09/15 21:48:56;;;;;;;;;;;14.30;93.90;;;;;;6185810;23;19916;-67
2022/09/15 21:51:24;;;;;;;;;;;14.40;93.90;;;;;;6185426;23;19904;-68
2022/09/15 21:53:51;;;;;;;;;;;14.40;93.70;;;;;;6185260;23;19908;-66
2022/09/15 21:56:17;;;;;;;;;;;14.50;93.80;;;;;;6185246;23;19908;-66
2022/09/15 21:58:44;;;;;;;;;;;14.50;93.40;;;;;;6185548;23;19908;-66
2022/09/15 22:01:11;;;;;;;;;;;14.40;93.10;;;;;;6185232;23;20372;-67
2022/09/15 22:03:41;;;;;;;;;;;14.50;93.30;;;;;;6184556;23;20294;-66
2022/09/15 22:06:08;;;;;;;;;;;14.50;93.20;;;;;;6184853;23;19904;-66
2022/09/15 22:08:35;;;;;;;;;;;14.60;93.20;;;;;;6184858;23;19990;-66
2022/09/15 22:11:02;;;;;;;;;;;14.70;93.30;;;;;;6184924;23;19931;-67
2022/09/15 22:13:28;;;;;;;;;;;14.70;93.60;;;;;;6185077;23;19904;-67
2022/09/15 22:16:04;;;;;;;;;;;14.80;93.60;;;;;;6159436;23;19986;-67
2022/09/15 22:18:31;;;;;;;;;;;14.90;93.50;;;;;;6159089;23;19905;-67
2022/09/15 22:21:07;;;;;;;;;;;14.90;93.50;;;;;;6185040;23;19984;-67
2022/09/15 22:23:35;;;;;;;;;;;15.00;93.70;;;;;;6184748;23;19904;-66
2022/09/15 22:26:02;;;;;;;;;;;15.10;93.60;;;;;;6184786;23;19943;-67
2022/09/15 22:28:30;;;;;;;;;;;15.10;93.70;;;;;;6184965;23;19917;-67
2022/09/15 22:30:59;;;;;;;;;;;15.10;93.40;;;;;;6185039;23;19987;-67
2022/09/15 22:33:26;;;;;;;;;;;15.20;93.20;;;;;;6184857;23;19932;-67
2022/09/15 22:35:53;;;;;;;;;;;15.20;93.10;;;;;;6184758;23;19982;-66
2022/09/15 22:38:20;;;;;;;;;;;15.20;92.60;;;;;;6158910;23;19908;-67
2022/09/15 22:40:47;;;;;;;;;;;15.30;92.80;;;;;;6185100;23;19912;-68
2022/09/15 22:43:13;;;;;;;;;;;15.20;92.40;;;;;;6184535;23;19967;-68
2022/09/15 22:45:40;;;;;;;;;;;15.30;92.80;;;;;;6158774;23;19904;-68
2022/09/15 22:48:07;;;;;;;;;;;15.40;93.10;;;;;;6184640;23;19991;-68
2022/09/15 22:50:33;;;;;;;;;;;15.40;92.20;;;;;;6184770;23;20343;-68
2022/09/15 22:53:00;;;;;;;;;;;15.40;92.00;;;;;;6184482;23;19908;-68
2022/09/15 22:55:26;;;;;;;;;;;15.50;92.40;;;;;;6184526;23;19970;-68
2022/09/15 22:57:53;;;;;;;;;;;15.60;91.80;;;;;;6184721;23;19905;-68
2022/09/15 23:00:20;;;;;;;;;;;15.70;91.90;;;;;;6159072;23;20236;-68
2022/09/15 23:02:47;;;;;;;;;;;15.70;92.10;;;;;;6184393;23;19904;-68
2022/09/15 23:05:13;;;;;;;;;;;15.80;91.90;;;;;;6184844;23;20000;-68
2022/09/15 23:07:40;;;;;;;;;;;15.80;90.00;;;;;;6184574;23;19919;-68
2022/09/15 23:10:07;;;;;;;;;;;15.80;89.70;;;;;;6184514;23;19904;-68
2022/09/15 23:12:33;;;;;;;;;;;15.90;89.80;;;;;;6184948;23;19911;-68
2022/09/15 23:15:03;;;;;;;;;;;16.00;86.80;;;;;;6184573;23;20233;-68
2022/09/15 23:17:30;;;;;;;;;;;16.00;87.10;;;;;;6184433;23;20304;-68
2022/09/15 23:19:56;;;;;;;;;;;16.10;85.30;;;;;;6184852;23;19905;-69
2022/09/15 23:22:23;;;;;;;;;;;16.20;85.10;;;;;;6184857;23;19919;-68
2022/09/15 23:24:49;;;;;;;;;;;16.20;85.50;;;;;;6184913;23;19911;-69
2022/09/15 23:27:16;;;;;;;;;;;16.30;84.80;;;;;;6184097;23;19908;-69
2022/09/15 23:29:43;;;;;;;;;;;16.40;84.70;;;;;;6184493;23;19936;-69
2022/09/15 23:32:09;;;;;;;;;;;16.50;84.10;;;;;;6184270;23;19936;-69
2022/09/15 23:34:36;;;;;;;;;;;16.60;84.10;;;;;;6184328;23;19912;-69
2022/09/15 23:37:03;;;;;;;;;;;16.60;81.90;;;;;;6184345;23;19950;-69
2022/09/15 23:39:29;;;;;;;;;;;16.70;81.10;;;;;;6184254;23;19912;-66
2022/09/15 23:41:56;;;;;;;;;;;16.70;82.60;;;;;;6184180;23;19908;-66
2022/09/15 23:44:22;;;;;;;;;;;16.80;79.90;;;;;;6184116;23;19916;-66
2022/09/15 23:46:49;;;;;;;;;;;16.80;79.40;;;;;;6184089;23;19963;-66
2022/09/15 23:49:15;;;;;;;;;;;16.80;77.90;;;;;;6184332;23;19916;-66
2022/09/15 23:51:42;;;;;;;;;;;17.00;78.50;;;;;;6184372;23;19990;-66
2022/09/15 23:54:08;;;;;;;;;;;17.00;78.50;;;;;;6184051;23;19905;-66
2022/09/15 23:56:35;;;;;;;;;;;17.00;78.80;;;;;;6183632;23;19904;-66
2022/09/15 23:59:02;;;;;;;;;;;17.10;79.10;;;;;;6184095;23;20324;-69
